Time;durP1;ratioP1;P1;durP2;ratioP2;P2;SDS_P1;SDS_P2;PMS_P1;PMS_P2;Temp;Humidity;BMP_temperature;BMP_pressure;BME280_temperature;BME280_humidity;BME280_pressure;Samples;Min_cycle;Max_cycle;Signal;HPM_P1;HPM_P2
2023/03/25 00:00:57;;;;;;;6.07;2.23;;;;;;;;;;5006871;28;20049;-79
2023/03/25 00:03:25;;;;;;;3.38;2.08;;;;;;;;;;4991412;28;20022;-79
2023/03/25 00:05:51;;;;;;;7.25;2.58;;;;;;;;;;4994860;28;20056;-79
2023/03/25 00:08:17;;;;;;;5.68;2.45;;;;;;;;;;4994344;28;20065;-78
2023/03/25 00:10:42;;;;;;;5.30;2.13;;;;;;;;;;4998982;28;20026;-79
2023/03/25 00:13:12;;;;;;;5.93;1.90;;;;;;;;;;5004028;28;20048;-78
2023/03/25 00:15:46;;;;;;;4.93;2.20;;;;;;;;;;5011690;28;20014;-79
2023/03/25 00:18:12;;;;;;;3.70;2.35;;;;;;;;;;5011860;28;20022;-79
2023/03/25 00:20:39;;;;;;;6.28;2.10;;;;;;;;;;5006428;28;20499;-80
2023/03/25 00:23:06;;;;;;;4.25;2.17;;;;;;;;;;4993856;28;20478;-79
2023/03/25 00:25:32;;;;;;;11.75;2.15;;;;;;;;;;4997546;28;20029;-78
2023/03/25 00:27:58;;;;;;;5.35;1.85;;;;;;;;;;4999943;28;20130;-79
2023/03/25 00:30:24;;;;;;;5.03;1.98;;;;;;;;;;5001850;28;20466;-79
2023/03/25 00:32:51;;;;;;;4.63;2.08;;;;;;;;;;4993974;28;20116;-79
2023/03/25 00:35:18;;;;;;;5.78;2.05;;;;;;;;;;4991206;28;20525;-79
2023/03/25 00:37:46;;;;;;;2.42;1.73;;;;;;;;;;4990487;28;20033;-79
2023/03/25 00:40:13;;;;;;;4.78;2.25;;;;;;;;;;4978337;28;20460;-79
2023/03/25 00:42:48;;;;;;;2.95;1.77;;;;;;;;;;4972703;28;20043;-79
2023/03/25 00:45:15;;;;;;;4.13;1.73;;;;;;;;;;4970671;28;20054;-79
2023/03/25 00:47:41;;;;;;;6.18;2.58;;;;;;;;;;4971007;28;20030;-79
2023/03/25 00:50:07;;;;;;;3.88;1.75;;;;;;;;;;4971637;28;20038;-79
2023/03/25 00:52:32;;;;;;;2.50;1.90;;;;;;;;;;4973690;28;20420;-80
2023/03/25 00:54:58;;;;;;;4.60;1.95;;;;;;;;;;4971858;28;20178;-80
2023/03/25 00:57:23;;;;;;;3.58;1.60;;;;;;;;;;4970967;28;20475;-80
2023/03/25 00:59:49;;;;;;;3.85;1.83;;;;;;;;;;4970684;28;20031;-80
2023/03/25 01:02:15;;;;;;;3.08;2.35;;;;;;;;;;4970521;28;20035;-80
2023/03/25 01:04:44;;;;;;;7.68;1.88;;;;;;;;;;4970500;28;20037;-79
2023/03/25 01:07:11;;;;;;;6.53;2.15;;;;;;;;;;4970563;28;20399;-79
2023/03/25 01:09:38;;;;;;;4.45;1.70;;;;;;;;;;4970313;28;20345;-79
2023/03/25 01:12:03;;;;;;;4.68;1.98;;;;;;;;;;4971588;28;20030;-78
2023/03/25 01:14:29;;;;;;;2.88;2.03;;;;;;;;;;4971014;28;20102;-79
2023/03/25 01:16:55;;;;;;;4.78;2.10;;;;;;;;;;4970349;28;20122;-79
2023/03/25 01:19:22;;;;;;;6.88;1.85;;;;;;;;;;4971828;28;20133;-79
2023/03/25 01:21:48;;;;;;;2.70;1.90;;;;;;;;;;4970691;28;20027;-79
2023/03/25 01:24:14;;;;;;;6.15;2.03;;;;;;;;;;4986567;28;20523;-80
2023/03/25 01:26:42;;;;;;;6.57;1.85;;;;;;;;;;4969983;28;20580;-79
2023/03/25 01:29:12;;;;;;;9.10;2.13;;;;;;;;;;4969586;28;20031;-78
2023/03/25 01:31:37;;;;;;;3.50;1.70;;;;;;;;;;4970153;28;20034;-80
2023/03/25 01:34:03;;;;;;;2.30;1.65;;;;;;;;;;4970133;28;20046;-78
2023/03/25 01:36:28;;;;;;;3.35;1.60;;;;;;;;;;4971894;28;20038;-79
2023/03/25 01:38:55;;;;;;;3.33;1.73;;;;;;;;;;4971774;28;20038;-79
2023/03/25 01:41:21;;;;;;;4.60;1.80;;;;;;;;;;4973618;28;20081;-79
2023/03/25 01:44:08;;;;;;;2.42;1.80;;;;;;;;;;4972549;28;20027;-78
2023/03/25 01:46:36;;;;;;;6.00;2.00;;;;;;;;;;4972606;28;20033;-79
2023/03/25 01:49:06;;;;;;;4.90;2.05;;;;;;;;;;4973305;28;20030;-78
2023/03/25 01:51:39;;;;;;;1.55;1.40;;;;;;;;;;4988674;28;20085;-78
2023/03/25 01:54:05;;;;;;;2.22;1.40;;;;;;;;;;4970714;28;20041;-79
2023/03/25 01:56:37;;;;;;;3.53;1.83;;;;;;;;;;4971790;28;20031;-79
2023/03/25 01:59:05;;;;;;;4.25;1.95;;;;;;;;;;4972459;28;20138;-79
2023/03/25 02:01:31;;;;;;;8.75;2.00;;;;;;;;;;4972163;28;20027;-79
2023/03/25 02:04:08;;;;;;;3.35;1.58;;;;;;;;;;4970898;28;20118;-79
2023/03/25 02:06:47;;;;;;;2.85;1.85;;;;;;;;;;4971413;28;20057;-79
2023/03/25 02:09:16;;;;;;;2.28;1.60;;;;;;;;;;4971668;28;20031;-79
2023/03/25 02:11:42;;;;;;;2.58;1.85;;;;;;;;;;4972964;28;20109;-80
2023/03/25 02:14:11;;;;;;;1.92;1.70;;;;;;;;;;4971736;28;20069;-79
2023/03/25 02:16:49;;;;;;;3.58;2.25;;;;;;;;;;4969971;28;20026;-79
2023/03/25 02:19:52;;;;;;;3.33;1.77;;;;;;;;;;4971473;28;20053;-78
2023/03/25 02:22:40;;;;;;;3.45;1.90;;;;;;;;;;4973269;28;20651;-79
2023/03/25 02:25:44;;;;;;;3.55;1.88;;;;;;;;;;4973171;28;20022;-78
2023/03/25 02:28:24;;;;;;;5.00;2.17;;;;;;;;;;4973314;28;20479;-79
2023/03/25 02:31:24;;;;;;;4.35;2.00;;;;;;;;;;4974808;28;20031;-78
2023/03/25 02:33:59;;;;;;;5.13;2.33;;;;;;;;;;4997603;28;20037;-79
2023/03/25 02:36:29;;;;;;;4.78;2.08;;;;;;;;;;5001149;28;20094;-79
2023/03/25 02:39:21;;;;;;;2.97;2.05;;;;;;;;;;4995614;28;20025;-79
2023/03/25 02:42:02;;;;;;;4.20;2.20;;;;;;;;;;4994344;28;20602;-79
2023/03/25 02:44:39;;;;;;;6.95;2.30;;;;;;;;;;5010726;28;20030;-80
2023/03/25 02:47:09;;;;;;;7.18;2.30;;;;;;;;;;5001361;28;20030;-80
2023/03/25 02:49:49;;;;;;;2.78;2.00;;;;;;;;;;4992668;28;20076;-79
2023/03/25 02:52:26;;;;;;;2.85;2.00;;;;;;;;;;4992023;28;20113;-79
2023/03/25 02:54:56;;;;;;;3.70;2.50;;;;;;;;;;4992476;28;20458;-80
2023/03/25 02:57:27;;;;;;;9.38;2.47;;;;;;;;;;4993805;28;20355;-80
2023/03/25 02:59:55;;;;;;;4.10;2.20;;;;;;;;;;4992195;28;20054;-80
2023/03/25 03:02:24;;;;;;;7.55;2.58;;;;;;;;;;4993391;28;20041;-79
2023/03/25 03:04:53;;;;;;;3.20;2.20;;;;;;;;;;4993603;28;20410;-80
2023/03/25 03:07:36;;;;;;;4.00;2.40;;;;;;;;;;4991994;28;20056;-80
2023/03/25 03:10:18;;;;;;;4.20;2.70;;;;;;;;;;4993503;28;20491;-80
2023/03/25 03:13:00;;;;;;;3.15;2.13;;;;;;;;;;4992035;28;20570;-79
2023/03/25 03:15:57;;;;;;;3.58;2.72;;;;;;;;;;4993300;28;20038;-80
2023/03/25 03:18:33;;;;;;;3.20;2.20;;;;;;;;;;4990967;28;20659;-80
2023/03/25 03:21:11;;;;;;;2.97;2.00;;;;;;;;;;4991659;28;20038;-79
2023/03/25 03:24:15;;;;;;;2.67;2.10;;;;;;;;;;4991948;28;20026;-80
2023/03/25 03:27:10;;;;;;;2.28;1.80;;;;;;;;;;4989841;28;20038;-80
2023/03/25 03:29:54;;;;;;;2.35;1.65;;;;;;;;;;4992968;28;20062;-79
2023/03/25 03:32:44;;;;;;;2.88;1.52;;;;;;;;;;4994046;28;20161;-80
2023/03/25 03:35:19;;;;;;;2.97;2.30;;;;;;;;;;4992188;28;20454;-79
2023/03/25 03:37:55;;;;;;;2.90;1.40;;;;;;;;;;4993908;28;20034;-80
2023/03/25 03:40:23;;;;;;;3.25;1.67;;;;;;;;;;4991672;28;20149;-80
2023/03/25 03:43:00;;;;;;;5.20;1.55;;;;;;;;;;4991194;28;20025;-79
2023/03/25 03:45:37;;;;;;;1.92;1.27;;;;;;;;;;4991125;28;20133;-79
2023/03/25 03:48:11;;;;;;;4.13;1.80;;;;;;;;;;4991026;28;20026;-79
2023/03/25 03:50:47;;;;;;;1.60;1.20;;;;;;;;;;4991597;28;20550;-80
2023/03/25 03:53:29;;;;;;;1.40;0.85;;;;;;;;;;4991991;28;20069;-78
2023/03/25 03:56:15;;;;;;;;;;;;;;;;;;4993043;28;20027;-79
2023/03/25 03:58:42;;;;;;;3.42;0.80;;;;;;;;;;5007378;28;19959;-78
2023/03/25 04:01:14;;;;;;;2.08;0.73;;;;;;;;;;4991281;28;20109;-79
2023/03/25 04:03:50;;;;;;;0.70;0.70;;;;;;;;;;4991180;28;20096;-79
2023/03/25 04:06:16;;;;;;;1.02;0.85;;;;;;;;;;4991138;28;20022;-79
2023/03/25 04:08:57;;;;;;;2.27;1.30;;;;;;;;;;4991349;28;20398;-79
2023/03/25 04:11:31;;;;;;;4.50;0.70;;;;;;;;;;4992037;28;20518;-79
2023/03/25 04:13:59;;;;;;;1.50;0.80;;;;;;;;;;4991199;28;20133;-79
2023/03/25 04:16:25;;;;;;;2.40;0.80;;;;;;;;;;4991465;28;20030;-80
2023/03/25 04:18:52;;;;;;;2.50;0.90;;;;;;;;;;4993608;28;20046;-80
2023/03/25 04:21:19;;;;;;;0.73;0.70;;;;;;;;;;4992072;28;20549;-80
2023/03/25 04:23:45;;;;;;;1.53;0.90;;;;;;;;;;4993492;28;20045;-79
2023/03/25 04:26:13;;;;;;;2.50;1.10;;;;;;;;;;4992742;28;20109;-79
2023/03/25 04:28:43;;;;;;;4.25;1.20;;;;;;;;;;4990730;28;20165;-80
2023/03/25 04:31:14;;;;;;;3.07;1.67;;;;;;;;;;4992374;28;20041;-79
2023/03/25 04:33:45;;;;;;;2.38;0.90;;;;;;;;;;4991755;28;20176;-79
2023/03/25 04:36:12;;;;;;;2.23;0.90;;;;;;;;;;4998263;28;20040;-80
2023/03/25 04:38:37;;;;;;;3.17;1.05;;;;;;;;;;4995797;28;20051;-78
2023/03/25 04:41:05;;;;;;;2.50;0.80;;;;;;;;;;4990421;28;20065;-78
2023/03/25 04:43:31;;;;;;;5.05;1.27;;;;;;;;;;4990602;28;20033;-79
2023/03/25 04:45:58;;;;;;;2.97;1.20;;;;;;;;;;4992204;28;20034;-80
2023/03/25 04:48:34;;;;;;;3.47;1.38;;;;;;;;;;4990515;28;20030;-78
2023/03/25 04:51:02;;;;;;;1.95;1.75;;;;;;;;;;4991586;28;20029;-80
2023/03/25 04:53:28;;;;;;;2.00;1.38;;;;;;;;;;4993171;28;20081;-79
2023/03/25 04:55:55;;;;;;;1.48;1.38;;;;;;;;;;4994905;28;20026;-78
2023/03/25 04:58:21;;;;;;;2.00;1.58;;;;;;;;;;4994569;28;20030;-79
2023/03/25 05:00:50;;;;;;;4.93;1.83;;;;;;;;;;4996874;28;20038;-80
2023/03/25 05:03:16;;;;;;;3.77;3.20;;;;;;;;;;5009011;28;20014;-82
2023/03/25 05:05:42;;;;;;;2.03;1.47;;;;;;;;;;5013423;28;20093;-80
2023/03/25 05:08:08;;;;;;;4.50;2.00;;;;;;;;;;4996776;28;20033;-80
2023/03/25 05:10:35;;;;;;;3.40;1.55;;;;;;;;;;4991035;28;20069;-80
2023/03/25 05:13:06;;;;;;;3.50;1.60;;;;;;;;;;4992635;28;20037;-80
2023/03/25 05:15:39;;;;;;;3.90;1.80;;;;;;;;;;4993763;28;20037;-79
2023/03/25 05:18:14;;;;;;;2.05;1.45;;;;;;;;;;4994650;28;20027;-80
2023/03/25 05:20:45;;;;;;;3.53;1.77;;;;;;;;;;5008044;28;20038;-80
2023/03/25 05:23:16;;;;;;;2.92;1.80;;;;;;;;;;5006482;28;20023;-78
2023/03/25 05:25:46;;;;;;;4.63;1.80;;;;;;;;;;5008647;28;20053;-79
2023/03/25 05:28:15;;;;;;;2.10;1.90;;;;;;;;;;4999499;28;20027;-80
2023/03/25 05:30:44;;;;;;;4.72;2.17;;;;;;;;;;4995065;28;20026;-79
2023/03/25 05:33:10;;;;;;;3.63;2.17;;;;;;;;;;4993038;28;20069;-79
2023/03/25 05:35:37;;;;;;;3.35;1.98;;;;;;;;;;4991876;28;20375;-79
2023/03/25 05:38:04;;;;;;;2.58;1.75;;;;;;;;;;4993669;28;20026;-81
2023/03/25 05:40:29;;;;;;;3.83;1.70;;;;;;;;;;4975614;28;20122;-79
2023/03/25 05:42:55;;;;;;;4.70;2.00;;;;;;;;;;4971513;28;20130;-80
2023/03/25 05:45:22;;;;;;;5.18;1.73;;;;;;;;;;4970759;28;20027;-80
2023/03/25 05:47:48;;;;;;;3.10;1.42;;;;;;;;;;4971231;28;20741;-79
2023/03/25 05:50:14;;;;;;;5.97;1.63;;;;;;;;;;4971213;28;20113;-79
2023/03/25 05:52:40;;;;;;;4.38;1.58;;;;;;;;;;4970296;28;20121;-79
2023/03/25 05:55:09;;;;;;;3.80;1.67;;;;;;;;;;4975097;28;20038;-80
2023/03/25 05:57:35;;;;;;;2.50;1.67;;;;;;;;;;4976098;28;20025;-80
2023/03/25 06:00:01;;;;;;;4.70;1.23;;;;;;;;;;4974436;28;20172;-79
2023/03/25 06:02:29;;;;;;;2.60;1.45;;;;;;;;;;4974447;28;20113;-79
2023/03/25 06:04:54;;;;;;;5.13;1.42;;;;;;;;;;4975857;28;20057;-80
2023/03/25 06:07:21;;;;;;;1.83;1.15;;;;;;;;;;4975605;28;20357;-79
2023/03/25 06:09:48;;;;;;;5.03;1.05;;;;;;;;;;4974516;28;20023;-80
2023/03/25 06:12:19;;;;;;;3.35;1.30;;;;;;;;;;4976111;28;20090;-79
2023/03/25 06:14:45;;;;;;;3.17;0.98;;;;;;;;;;4975363;28;20028;-79
2023/03/25 06:17:14;;;;;;;3.80;1.25;;;;;;;;;;4975359;28;20030;-80
2023/03/25 06:19:39;;;;;;;6.65;1.65;;;;;;;;;;4974294;28;20054;-79
2023/03/25 06:22:08;;;;;;;2.28;1.27;;;;;;;;;;4975802;28;20537;-80
2023/03/25 06:24:36;;;;;;;2.88;1.10;;;;;;;;;;4975916;28;20681;-80
2023/03/25 06:27:02;;;;;;;3.92;1.05;;;;;;;;;;4958870;28;20117;-80
2023/03/25 06:29:27;;;;;;;1.55;0.95;;;;;;;;;;4974960;28;20113;-79
2023/03/25 06:31:53;;;;;;;0.82;0.75;;;;;;;;;;4975433;28;20205;-79
2023/03/25 06:34:19;;;;;;;4.47;0.90;;;;;;;;;;4975681;28;20610;-78
2023/03/25 06:36:48;;;;;;;5.57;1.05;;;;;;;;;;4978750;28;20027;-79
2023/03/25 06:39:15;;;;;;;2.00;1.10;;;;;;;;;;4985943;28;20019;-78
2023/03/25 06:41:41;;;;;;;2.70;0.90;;;;;;;;;;4980544;28;20022;-80
2023/03/25 06:44:07;;;;;;;1.15;0.70;;;;;;;;;;4976486;28;20034;-80
2023/03/25 06:46:32;;;;;;;0.77;0.55;;;;;;;;;;4976842;28;20086;-81
2023/03/25 06:48:58;;;;;;;5.22;1.20;;;;;;;;;;4981601;28;20043;-80
2023/03/25 06:51:23;;;;;;;1.17;0.80;;;;;;;;;;4982367;28;20030;-81
2023/03/25 06:53:49;;;;;;;3.97;0.80;;;;;;;;;;4978237;28;20065;-79
2023/03/25 06:56:14;;;;;;;1.52;1.00;;;;;;;;;;4974645;28;20487;-80
2023/03/25 06:58:40;;;;;;;2.83;0.80;;;;;;;;;;4973642;28;20054;-80
2023/03/25 07:01:06;;;;;;;7.53;0.70;;;;;;;;;;4973585;28;20086;-80
2023/03/25 07:03:35;;;;;;;4.97;0.60;;;;;;;;;;4973600;28;20519;-79
2023/03/25 07:06:01;;;;;;;6.00;0.85;;;;;;;;;;4973059;28;20078;-78
2023/03/25 07:08:27;;;;;;;5.32;0.90;;;;;;;;;;4974637;28;20029;-79
2023/03/25 07:10:52;;;;;;;2.45;0.90;;;;;;;;;;4972644;28;20026;-79
2023/03/25 07:13:18;;;;;;;4.13;0.80;;;;;;;;;;4974120;28;20116;-78
2023/03/25 07:15:43;;;;;;;7.55;0.95;;;;;;;;;;4976193;28;20066;-79
2023/03/25 07:18:09;;;;;;;7.97;0.73;;;;;;;;;;4974265;28;20050;-80
2023/03/25 07:20:34;;;;;;;5.00;0.88;;;;;;;;;;4973850;28;20412;-79
2023/03/25 07:23:00;;;;;;;2.80;0.65;;;;;;;;;;4973352;28;20034;-79
2023/03/25 07:25:25;;;;;;;2.55;1.05;;;;;;;;;;4972830;28;20041;-80
2023/03/25 07:27:51;;;;;;;2.55;0.73;;;;;;;;;;4974612;28;20026;-80
2023/03/25 07:30:16;;;;;;;0.60;0.60;;;;;;;;;;4972579;28;20109;-79
2023/03/25 07:32:45;;;;;;;2.40;1.17;;;;;;;;;;4972916;28;20038;-79
2023/03/25 07:35:11;;;;;;;3.08;0.95;;;;;;;;;;4976392;28;20026;-78
2023/03/25 07:37:37;;;;;;;8.02;1.05;;;;;;;;;;4957145;28;20121;-78
2023/03/25 07:40:02;;;;;;;5.68;0.85;;;;;;;;;;4974062;28;20085;-78
2023/03/25 07:42:28;;;;;;;3.03;0.68;;;;;;;;;;4972795;28;20025;-78
2023/03/25 07:44:54;;;;;;;1.90;0.40;;;;;;;;;;4974387;28;20526;-80
2023/03/25 07:47:19;;;;;;;1.40;0.80;;;;;;;;;;4973912;28;20027;-80
2023/03/25 07:49:46;;;;;;;3.40;0.77;;;;;;;;;;4973633;28;20030;-79
2023/03/25 07:52:12;;;;;;;8.48;1.20;;;;;;;;;;4972917;28;20058;-80
2023/03/25 07:54:37;;;;;;;2.05;0.60;;;;;;;;;;4972392;28;20059;-80
2023/03/25 07:57:03;;;;;;;2.45;0.45;;;;;;;;;;4972263;28;20030;-79
2023/03/25 07:59:28;;;;;;;2.85;0.75;;;;;;;;;;4973667;28;20089;-78
2023/03/25 08:01:54;;;;;;;2.53;0.63;;;;;;;;;;4972557;28;20027;-79
2023/03/25 08:04:19;;;;;;;3.00;0.90;;;;;;;;;;4972066;28;20140;-79
2023/03/25 08:06:45;;;;;;;1.80;0.45;;;;;;;;;;4973415;28;20027;-79
2023/03/25 08:09:11;;;;;;;2.60;0.55;;;;;;;;;;4972769;28;20110;-79
2023/03/25 08:11:36;;;;;;;2.55;0.47;;;;;;;;;;4972865;28;20030;-82
2023/03/25 08:14:02;;;;;;;1.88;0.85;;;;;;;;;;4973247;28;20030;-79
2023/03/25 08:16:28;;;;;;;0.95;0.57;;;;;;;;;;4973571;28;20110;-80
2023/03/25 08:18:53;;;;;;;2.33;0.60;;;;;;;;;;4972450;28;20074;-79
2023/03/25 08:21:26;;;;;;;2.00;0.75;;;;;;;;;;4971801;28;20073;-80
2023/03/25 08:24:01;;;;;;;2.15;0.60;;;;;;;;;;4972179;28;20035;-80
2023/03/25 08:26:27;;;;;;;3.28;0.75;;;;;;;;;;4973251;28;20034;-80
2023/03/25 08:28:56;;;;;;;2.22;0.60;;;;;;;;;;4988454;28;20027;-80
2023/03/25 08:31:25;;;;;;;3.70;1.17;;;;;;;;;;4973000;28;20172;-80
2023/03/25 08:33:51;;;;;;;0.77;0.55;;;;;;;;;;4972373;28;20033;-79
2023/03/25 08:36:22;;;;;;;2.03;0.68;;;;;;;;;;4974056;28;20108;-81
2023/03/25 08:38:48;;;;;;;3.08;1.58;;;;;;;;;;4978040;28;20101;-80
2023/03/25 08:41:15;;;;;;;1.00;0.60;;;;;;;;;;4976137;28;20057;-79
2023/03/25 08:43:40;;;;;;;4.80;0.70;;;;;;;;;;4972775;28;20026;-78
2023/03/25 08:46:06;;;;;;;2.17;0.90;;;;;;;;;;4955523;28;20122;-80
2023/03/25 08:48:32;;;;;;;3.15;1.05;;;;;;;;;;4971439;28;20045;-79
2023/03/25 08:50:58;;;;;;;2.53;0.60;;;;;;;;;;4972484;28;20483;-79
2023/03/25 08:53:24;;;;;;;4.88;1.42;;;;;;;;;;4973295;28;20030;-79
2023/03/25 08:55:52;;;;;;;0.47;0.45;;;;;;;;;;4973998;28;20048;-80
2023/03/25 08:58:18;;;;;;;1.05;0.43;;;;;;;;;;4973234;28;20077;-79
2023/03/25 09:00:44;;;;;;;1.15;0.30;;;;;;;;;;4973082;28;20380;-80
2023/03/25 09:03:10;;;;;;;1.88;0.60;;;;;;;;;;4970885;28;20105;-79
2023/03/25 09:05:40;;;;;;;0.73;0.50;;;;;;;;;;4972091;28;20018;-80
2023/03/25 09:08:07;;;;;;;1.63;0.35;;;;;;;;;;4971136;28;20035;-80
2023/03/25 09:10:33;;;;;;;1.30;0.45;;;;;;;;;;4972068;28;20543;-79
2023/03/25 09:12:58;;;;;;;1.15;0.63;;;;;;;;;;4976702;28;20121;-80
2023/03/25 09:15:24;;;;;;;1.90;0.75;;;;;;;;;;4972615;28;20027;-79
2023/03/25 09:17:49;;;;;;;2.47;0.50;;;;;;;;;;4971736;28;20082;-79
2023/03/25 09:20:17;;;;;;;2.42;0.65;;;;;;;;;;4923050;28;1443501;-79
2023/03/25 09:22:43;;;;;;;1.92;0.45;;;;;;;;;;4973689;28;20408;-79
2023/03/25 09:25:09;;;;;;;2.78;0.95;;;;;;;;;;4974546;28;20460;-79
2023/03/25 09:27:35;;;;;;;5.28;0.82;;;;;;;;;;4974634;28;20031;-80
2023/03/25 09:30:00;;;;;;;0.93;0.40;;;;;;;;;;4972903;28;20583;-79
2023/03/25 09:32:26;;;;;;;0.68;0.40;;;;;;;;;;4973656;28;20027;-81
2023/03/25 09:34:51;;;;;;;2.75;0.73;;;;;;;;;;4972402;28;20030;-80
2023/03/25 09:37:17;;;;;;;1.80;0.50;;;;;;;;;;4972873;28;20027;-80
2023/03/25 09:39:43;;;;;;;1.45;0.50;;;;;;;;;;4982475;28;20133;-79
2023/03/25 09:42:39;;;;;;;1.15;1.05;;;;;;;;;;4994891;28;20087;-80
2023/03/25 09:45:14;;;;;;;2.35;0.68;;;;;;;;;;4990951;28;20037;-78
2023/03/25 09:48:03;;;;;;;0.43;0.43;;;;;;;;;;4992688;28;20205;-80
2023/03/25 09:50:32;;;;;;;2.47;0.40;;;;;;;;;;4992215;28;20105;-79
2023/03/25 09:53:06;;;;;;;1.58;0.50;;;;;;;;;;4991245;28;20540;-80
2023/03/25 09:55:38;;;;;;;3.28;0.52;;;;;;;;;;4992777;28;20033;-80
2023/03/25 09:58:33;;;;;;;1.30;0.45;;;;;;;;;;4993644;28;20098;-80
2023/03/25 10:01:20;;;;;;;1.30;0.50;;;;;;;;;;4993120;28;20033;-79
2023/03/25 10:03:45;;;;;;;2.75;0.43;;;;;;;;;;4991271;28;20106;-80
2023/03/25 10:06:13;;;;;;;3.15;0.38;;;;;;;;;;4992052;28;20038;-79
2023/03/25 10:08:54;;;;;;;1.23;0.35;;;;;;;;;;4990926;28;20028;-79
2023/03/25 10:11:34;;;;;;;3.67;0.50;;;;;;;;;;4990648;28;20081;-79
2023/03/25 10:14:10;;;;;;;0.57;0.43;;;;;;;;;;4991766;28;20479;-80
2023/03/25 10:16:52;;;;;;;3.35;0.70;;;;;;;;;;4990388;28;20465;-78
2023/03/25 10:19:41;;;;;;;0.88;0.30;;;;;;;;;;4992071;28;20042;-79
2023/03/25 10:22:27;;;;;;;1.50;0.40;;;;;;;;;;4991753;28;20046;-79
2023/03/25 10:25:01;;;;;;;2.15;0.47;;;;;;;;;;4993785;28;20030;-79
2023/03/25 10:27:41;;;;;;;1.88;0.55;;;;;;;;;;5006030;28;20030;-79
2023/03/25 10:30:17;;;;;;;2.65;0.50;;;;;;;;;;4999177;28;20022;-79
2023/03/25 10:32:52;;;;;;;6.63;1.00;;;;;;;;;;5008300;28;20042;-80
2023/03/25 10:35:41;;;;;;;1.75;0.60;;;;;;;;;;5002797;28;20030;-79
2023/03/25 10:38:17;;;;;;;1.88;1.02;;;;;;;;;;4991785;28;20030;-80
2023/03/25 10:40:51;;;;;;;1.25;0.55;;;;;;;;;;5003071;28;20029;-78
2023/03/25 10:43:32;;;;;;;2.95;0.52;;;;;;;;;;4996142;28;20034;-80
2023/03/25 10:46:18;;;;;;;1.60;0.70;;;;;;;;;;4994328;28;20034;-80
2023/03/25 10:48:45;;;;;;;1.35;0.30;;;;;;;;;;4993589;28;20124;-80
2023/03/25 10:51:15;;;;;;;0.68;0.30;;;;;;;;;;4994958;28;20026;-80
2023/03/25 10:53:44;;;;;;;1.17;0.40;;;;;;;;;;4993630;28;20034;-80
2023/03/25 10:56:16;;;;;;;3.92;0.40;;;;;;;;;;4995569;28;20026;-79
2023/03/25 10:58:46;;;;;;;1.55;0.30;;;;;;;;;;4996272;28;20034;-78
2023/03/25 11:01:16;;;;;;;0.50;0.50;;;;;;;;;;4994527;28;20026;-79
2023/03/25 11:03:43;;;;;;;2.38;0.80;;;;;;;;;;4994904;28;20550;-78
2023/03/25 11:06:28;;;;;;;0.30;0.30;;;;;;;;;;4993196;28;20084;-79
2023/03/25 11:09:07;;;;;;;7.60;1.13;;;;;;;;;;4996017;28;20026;-79
2023/03/25 11:11:34;;;;;;;1.63;0.38;;;;;;;;;;4994474;28;20529;-80
2023/03/25 11:14:01;;;;;;;1.02;0.40;;;;;;;;;;4995747;28;20477;-80
2023/03/25 11:16:32;;;;;;;0.95;0.32;;;;;;;;;;4993657;28;20061;-80
2023/03/25 11:19:03;;;;;;;2.65;0.60;;;;;;;;;;4993638;28;20125;-79
2023/03/25 11:21:34;;;;;;;0.82;0.50;;;;;;;;;;4993132;28;20030;-79
2023/03/25 11:24:00;;;;;;;1.67;0.70;;;;;;;;;;4996124;28;20030;-79
2023/03/25 11:26:29;;;;;;;1.42;0.57;;;;;;;;;;4996047;28;20074;-80
2023/03/25 11:29:15;;;;;;;1.35;0.63;;;;;;;;;;4998254;28;20054;-80
2023/03/25 11:31:42;;;;;;;0.70;0.38;;;;;;;;;;4995389;28;20110;-79
2023/03/25 11:34:20;;;;;;;2.97;0.57;;;;;;;;;;4999248;28;20037;-79
2023/03/25 11:36:58;;;;;;;1.45;0.32;;;;;;;;;;4997790;28;20032;-80
2023/03/25 11:39:38;;;;;;;2.80;0.68;;;;;;;;;;5001730;28;20085;-80
2023/03/25 11:42:31;;;;;;;6.78;0.70;;;;;;;;;;5003262;28;20026;-78
2023/03/25 11:44:59;;;;;;;1.25;0.45;;;;;;;;;;5006752;28;20050;-80
2023/03/25 11:47:35;;;;;;;1.40;0.50;;;;;;;;;;4985395;28;20030;-80
2023/03/25 11:50:01;;;;;;;0.60;0.40;;;;;;;;;;4978933;28;20034;-79
2023/03/25 11:52:44;;;;;;;0.73;0.50;;;;;;;;;;4994946;28;20157;-80
2023/03/25 11:55:15;;;;;;;3.80;0.60;;;;;;;;;;4996639;28;20109;-79
2023/03/25 11:57:41;;;;;;;1.33;0.73;;;;;;;;;;4995493;28;20057;-79
2023/03/25 12:00:26;;;;;;;3.50;1.00;;;;;;;;;;4994918;28;20687;-79
2023/03/25 12:03:04;;;;;;;0.73;0.40;;;;;;;;;;4995389;28;20332;-79
2023/03/25 12:05:30;;;;;;;3.05;0.95;;;;;;;;;;4993662;28;20037;-79
2023/03/25 12:08:04;;;;;;;3.60;1.08;;;;;;;;;;4992924;28;20018;-80
2023/03/25 12:10:45;;;;;;;4.55;0.77;;;;;;;;;;4992375;28;20022;-80
2023/03/25 12:13:31;;;;;;;2.67;0.60;;;;;;;;;;4992859;28;20430;-80
2023/03/25 12:16:10;;;;;;;8.07;0.98;;;;;;;;;;4993573;28;20117;-79
2023/03/25 12:18:55;;;;;;;3.30;0.50;;;;;;;;;;4993948;28;20132;-80
2023/03/25 12:21:58;;;;;;;4.53;0.68;;;;;;;;;;4993378;28;20068;-80
2023/03/25 12:24:36;;;;;;;3.05;1.30;;;;;;;;;;4992473;28;20042;-79
2023/03/25 12:27:26;;;;;;;3.20;0.73;;;;;;;;;;4992190;28;20121;-78
2023/03/25 12:30:30;;;;;;;3.00;1.08;;;;;;;;;;4993451;28;20114;-79
2023/03/25 12:33:13;;;;;;;1.58;0.82;;;;;;;;;;4991592;28;20026;-79
2023/03/25 12:36:02;;;;;;;0.68;0.50;;;;;;;;;;4991758;28;20026;-79
2023/03/25 12:39:10;;;;;;;1.92;0.85;;;;;;;;;;4978920;28;20073;-79
2023/03/25 12:41:56;;;;;;;2.15;0.60;;;;;;;;;;5012770;28;20030;-80
2023/03/25 12:44:33;;;;;;;0.80;0.40;;;;;;;;;;5000727;28;20026;-80
2023/03/25 12:47:12;;;;;;;1.27;0.40;;;;;;;;;;4994625;28;20041;-79
2023/03/25 12:50:10;;;;;;;19.10;9.15;;;;;;;;;;4998474;28;20029;-79
2023/03/25 12:52:41;;;;;;;0.60;0.50;;;;;;;;;;4981480;28;20121;-79
2023/03/25 12:55:35;;;;;;;1.58;0.57;;;;;;;;;;4993600;28;20491;-79
2023/03/25 12:58:18;;;;;;;2.08;0.52;;;;;;;;;;4966512;28;20045;-79
2023/03/25 13:01:11;;;;;;;1.83;0.60;;;;;;;;;;4992379;28;20076;-80
2023/03/25 13:03:56;;;;;;;1.73;0.73;;;;;;;;;;4990460;28;20036;-79
2023/03/25 13:06:58;;;;;;;2.13;0.50;;;;;;;;;;4991324;28;20182;-80
2023/03/25 13:09:36;;;;;;;1.37;0.50;;;;;;;;;;4978006;28;20145;-80
2023/03/25 13:12:24;;;;;;;3.78;0.57;;;;;;;;;;4991499;28;20406;-80
2023/03/25 13:14:55;;;;;;;3.00;0.63;;;;;;;;;;4992792;28;20034;-80
2023/03/25 13:17:50;;;;;;;4.03;0.47;;;;;;;;;;4991043;28;20030;-79
2023/03/25 13:20:18;;;;;;;2.17;0.47;;;;;;;;;;4999052;28;20053;-80
2023/03/25 13:22:48;;;;;;;1.48;0.63;;;;;;;;;;4992589;28;20033;-79
2023/03/25 13:25:26;;;;;;;5.15;1.17;;;;;;;;;;4994740;28;20026;-81
2023/03/25 13:27:55;;;;;;;6.93;3.10;;;;;;;;;;4998282;28;20034;-81
2023/03/25 13:30:30;;;;;;;2.90;0.98;;;;;;;;;;5015527;28;20116;-81
2023/03/25 13:33:02;;;;;;;2.55;0.70;;;;;;;;;;4995668;28;20046;-82
2023/03/25 13:36:07;;;;;;;3.38;1.20;;;;;;;;;;4992790;28;20109;-81
2023/03/25 13:38:55;;;;;;;4.07;1.00;;;;;;;;;;4992616;28;20034;-81
2023/03/25 13:41:33;;;;;;;5.43;0.80;;;;;;;;;;4971329;28;20035;-81
2023/03/25 13:44:13;;;;;;;3.72;0.70;;;;;;;;;;4972006;28;20031;-81
2023/03/25 13:46:55;;;;;;;2.53;0.70;;;;;;;;;;4972973;28;20112;-81
2023/03/25 13:49:48;;;;;;;1.95;0.88;;;;;;;;;;4970888;28;20027;-81
2023/03/25 13:52:14;;;;;;;4.07;1.02;;;;;;;;;;4972579;28;20049;-81
2023/03/25 13:55:00;;;;;;;3.28;1.02;;;;;;;;;;4971383;28;20019;-79
2023/03/25 13:58:08;;;;;;;4.82;0.77;;;;;;;;;;4974867;28;20027;-80
2023/03/25 14:00:58;;;;;;;2.15;0.68;;;;;;;;;;4974347;28;20030;-80
2023/03/25 14:03:24;;;;;;;6.45;0.73;;;;;;;;;;4972957;28;20022;-80
2023/03/25 14:05:56;;;;;;;0.90;0.70;;;;;;;;;;4972342;28;20763;-81
2023/03/25 14:08:37;;;;;;;2.55;0.90;;;;;;;;;;4972961;28;20031;-81
2023/03/25 14:11:26;;;;;;;3.03;0.90;;;;;;;;;;4974184;28;20041;-81
2023/03/25 14:14:01;;;;;;;2.05;0.77;;;;;;;;;;4974238;28;20034;-80
2023/03/25 14:16:32;;;;;;;2.67;0.52;;;;;;;;;;4976583;28;20031;-81
2023/03/25 14:19:02;;;;;;;8.95;0.80;;;;;;;;;;4975736;28;20046;-81
2023/03/25 14:21:32;;;;;;;6.57;1.42;;;;;;;;;;4975319;28;20118;-81
2023/03/25 14:24:10;;;;;;;1.80;0.45;;;;;;;;;;4975334;28;20023;-81
2023/03/25 14:26:42;;;;;;;4.18;0.75;;;;;;;;;;4974437;28;20352;-81
2023/03/25 14:29:28;;;;;;;5.60;0.75;;;;;;;;;;4974172;28;20061;-80
2023/03/25 14:32:05;;;;;;;1.33;0.63;;;;;;;;;;4975485;28;20046;-80
2023/03/25 14:34:30;;;;;;;3.08;0.93;;;;;;;;;;4976512;28;20049;-82
2023/03/25 14:36:56;;;;;;;4.55;1.10;;;;;;;;;;4973892;28;20030;-81
2023/03/25 14:39:33;;;;;;;3.58;0.82;;;;;;;;;;4975935;28;20077;-81
2023/03/25 14:42:22;;;;;;;4.20;1.05;;;;;;;;;;4981323;28;20037;-81
2023/03/25 14:44:53;;;;;;;2.35;0.75;;;;;;;;;;4982492;28;20050;-81
2023/03/25 14:47:21;;;;;;;6.57;1.17;;;;;;;;;;4976947;28;20037;-80
2023/03/25 14:50:19;;;;;;;2.10;0.80;;;;;;;;;;4975777;28;20039;-81
2023/03/25 14:52:55;;;;;;;2.35;0.80;;;;;;;;;;4943373;28;20027;-80
2023/03/25 14:55:28;;;;;;;1.98;0.70;;;;;;;;;;4975334;28;20038;-80
2023/03/25 14:58:00;;;;;;;1.80;0.70;;;;;;;;;;4975337;28;20031;-81
2023/03/25 15:00:39;;;;;;;2.05;1.00;;;;;;;;;;4973342;28;20019;-80
2023/03/25 15:03:12;;;;;;;2.47;0.60;;;;;;;;;;4958959;28;20035;-80
2023/03/25 15:05:40;;;;;;;3.15;0.75;;;;;;;;;;4957581;28;20094;-80
2023/03/25 15:08:11;;;;;;;2.50;0.80;;;;;;;;;;4973619;28;20018;-80
2023/03/25 15:10:41;;;;;;;1.60;0.57;;;;;;;;;;4974807;28;20031;-81
2023/03/25 15:13:27;;;;;;;1.05;0.77;;;;;;;;;;4974315;28;20037;-80
2023/03/25 15:15:58;;;;;;;1.17;0.65;;;;;;;;;;4974288;28;20031;-80